Taurus — WDB5562 — position and weather

sailwx.info

Track history (hours):
 
Tides and Currents Weather Stations Pressure Air Temp Water Temp Dewpoint Dewpoint Depression Visibility Wind Speed Wind Dir Waves Ship Positions

Taurus

Owner: Kirby Offshore Marine, LLC, Seattle, WA. More information available from US FCC via Universal Licensing System and Coast Guard Vessel Documentation Center.

Last reported at 2017-Jun-27 21:14 UTC. Time now 2017-Jun-27 22:36 UTC.
Position N 39°22' W 074°24'.

Length 24 m.

Type: Ship (hazmat cat B). MMSI: 366910990.

Date/timePositionNaut miles runAvg speedWind from/ knotsBaromVisibWave heightAir tempDewpointWater temp
2017-Jun-27 21:14N 39°22' W 074°24'40 5.3
2017-Jun-27 13:39N 39°06' W 075°12'1 8.7
2017-Jun-27 13:30N 39°07' W 075°13'5 9.1
2017-Jun-27 12:56N 39°11' W 075°17'410.4
2017-Jun-27 12:31N 39°15' W 075°20'611.9
2017-Jun-27 12:00N 39°20' W 075°25'612.5
2017-Jun-27 11:31N 39°24' W 075°30'611.3
2017-Jun-27 11:00N 39°29' W 075°34'611.3
2017-Jun-27 10:30N 39°35' W 075°33'5 9.9
2017-Jun-27 10:00N 39°40' W 075°32'510.7
2017-Jun-27 09:31N 39°45' W 075°30'5 9.5
2017-Jun-27 09:01N 39°48' W 075°25'2 4.3
2017-Jun-27 08:30N 39°49' W 075°23'0 0.5
2017-Jun-27 08:01N 39°50' W 075°23'1 1.5
2017-Jun-27 07:30N 39°50' W 075°22'0 0.9
2017-Jun-27 07:00N 39°49' W 075°22'0 0.7
2017-Jun-27 06:30N 39°50' W 075°22'2 4.9
2017-Jun-27 06:00N 39°48' W 075°25'2 4.5
2017-Jun-27 05:30N 39°47' W 075°27'5 9.0
2017-Jun-27 05:00N 39°43' W 075°30'4 9.0
2017-Jun-27 04:30N 39°39' W 075°33'4 7.8
2017-Jun-27 04:00N 39°35' W 075°34'4 8.5
2017-Jun-27 03:30N 39°31' W 075°33'4 8.5
2017-Jun-27 03:00N 39°27' W 075°33'4 8.4
2017-Jun-27 02:30N 39°24' W 075°29'4 7.8
2017-Jun-27 02:00N 39°21' W 075°26'4 7.3
2017-Jun-27 01:31N 39°18' W 075°23'4 7.1
2017-Jun-27 01:01N 39°16' W 075°20'3 6.2
2017-Jun-27 00:30N 39°13' W 075°17'2 4.1
2017-Jun-27 00:00N 39°11' W 075°16'3 6.5
2017-Jun-26 23:30N 39°09' W 075°14'3 5.0
2017-Jun-26 22:59N 39°06' W 075°12'2 3.5
2017-Jun-26 22:27N 39°05' W 075°11'1 0.1
2017-Jun-26 10:25N 39°04' W 075°11'511.1
2017-Jun-26 10:00N 39°08' W 075°14'612.0
2017-Jun-26 09:30N 39°13' W 075°18'612.9
2017-Jun-26 09:00N 39°18' W 075°23'612.2
2017-Jun-26 08:30N 39°23' W 075°28'611.5
2017-Jun-26 08:00N 39°27' W 075°33'510.5
2017-Jun-26 07:31N 39°32' W 075°33'2 4.3
2017-Jun-26 07:01N 39°34' W 075°31'2 3.6
2017-Jun-26 06:30N 39°35' W 075°29'0 0.4
2017-Jun-26 06:01N 39°34' W 075°29'3 5.8
2017-Jun-26 05:30N 39°33' W 075°32'4 7.1
2017-Jun-26 05:01N 39°35' W 075°36'3 6.7
2017-Jun-26 04:30N 39°39' W 075°35'3 6.9
2017-Jun-26 04:00N 39°41' W 075°31'3 6.9
2017-Jun-26 03:30N 39°44' W 075°30'4 7.5
2017-Jun-26 03:00N 39°47' W 075°27'4 8.3
2017-Jun-26 02:30N 39°50' W 075°23'5 9.3
2017-Jun-26 02:00N 39°51' W 075°17'5 9.3
2017-Jun-26 01:31N 39°54' W 075°12'0 0.2
2017-Jun-26 00:58N 39°54' W 075°12'0 0.0
2017-Jun-26 00:30N 39°54' W 075°12'0 0.0
2017-Jun-26 00:00N 39°54' W 075°12'0 0.0
2017-Jun-25 23:30N 39°54' W 075°12'0 0.0
2017-Jun-25 23:00N 39°54' W 075°12'1 1.1
2017-Jun-25 22:30N 39°54' W 075°12'3 5.3
2017-Jun-25 22:00N 39°53' W 075°09'4 7.3
2017-Jun-25 21:30N 39°56' W 075°08'3 6.9
2017-Jun-25 21:00N 39°59' W 075°05'0 0.5
2017-Jun-25 20:25N 39°59' W 075°05'0 0.0
2017-Jun-25 17:40N 39°59' W 075°05'0 0.0
2017-Jun-25 16:38N 39°59' W 075°05'0 0.0
2017-Jun-25 16:26N 39°59' W 075°05'3 4.5
2017-Jun-25 15:51N 39°58' W 075°08'3 8.2
2017-Jun-25 15:29N 39°55' W 075°08'3 6.4
2017-Jun-25 15:00N 39°53' W 075°11'2 3.1
2017-Jun-25 14:29N 39°54' W 075°13'1 0.0
2017-Jun-23 19:24N 39°54' W 075°12'3 6.4
2017-Jun-23 19:00N 39°53' W 075°08'4 8.6
2017-Jun-23 18:30N 39°57' W 075°08'3 5.3
2017-Jun-23 18:01N 39°55' W 075°08'4 8.0
2017-Jun-23 17:30N 39°53' W 075°12'5 9.5
2017-Jun-23 17:00N 39°51' W 075°18'4 8.0
2017-Jun-23 16:30N 39°50' W 075°23'0 0.1
2017-Jun-23 16:00N 39°50' W 075°23'0 0.0
2017-Jun-23 15:30N 39°50' W 075°23'0 0.0
2017-Jun-23 15:00N 39°50' W 075°23'0 0.0
2017-Jun-23 14:30N 39°50' W 075°23'0 0.0
2017-Jun-23 13:30N 39°50' W 075°23'4 8.5
2017-Jun-23 13:00N 39°47' W 075°27'5 9.9
2017-Jun-23 12:30N 39°43' W 075°31'5 9.5
2017-Jun-23 12:00N 39°39' W 075°34'4 8.2
2017-Jun-23 11:30N 39°35' W 075°33'4 8.5
2017-Jun-23 11:00N 39°30' W 075°33'4 8.5
2017-Jun-23 10:30N 39°26' W 075°32'4 8.4
2017-Jun-23 10:00N 39°23' W 075°28'4 8.1
2017-Jun-23 09:31N 39°20' W 075°25'4 7.3
2017-Jun-23 09:00N 39°17' W 075°22'4 7.4
2017-Jun-23 08:31N 39°14' W 075°19'3 6.8
2017-Jun-23 08:00N 39°11' W 075°17'4 7.4
2017-Jun-23 07:30N 39°08' W 075°14'4 7.8
2017-Jun-23 07:01N 39°05' W 075°11'4 7.5
2017-Jun-23 06:30N 39°02' W 075°09'4 7.5
2017-Jun-23 06:00N 38°58' W 075°07'3 6.6
2017-Jun-23 05:31N 38°55' W 075°06'4 6.6
2017-Jun-23 04:58N 38°52' W 075°04'3 6.4
2017-Jun-23 04:28N 38°49' W 075°02'5 7.5
2017-Jun-23 03:51N 38°49' W 074°56'3 7.7
2017-Jun-23 03:31N 38°50' W 074°52'16 8.5
2017-Jun-23 01:40N 39°02' W 074°40'7 9.0
2017-Jun-23 00:52N 39°07' W 074°34'3 8.9
2017-Jun-23 00:30N 39°10' W 074°31'5 9.1
2017-Jun-22 23:57N 39°13' W 074°27'22 8.9
2017-Jun-22 21:31N 39°32' W 074°13'0 9.2
2017-Jun-22 21:29N 39°32' W 074°13'6 9.2
2017-Jun-22 20:50N 39°38' W 074°09'3 9.0
2017-Jun-22 20:30N 39°40' W 074°07'4 9.1
2017-Jun-22 20:00N 39°44' W 074°05'5 8.4
2017-Jun-22 19:25N 39°49' W 074°04'4 8.8
2017-Jun-22 18:58N 39°53' W 074°03'4 9.0
2017-Jun-22 18:29N 39°57' W 074°02'5 9.2
2017-Jun-22 17:59N 40°02' W 074°01'28 8.8
2017-Jun-22 14:51N 40°29' W 073°56'411.1
2017-Jun-22 14:30N 40°31' W 074°01'8 8.4
2017-Jun-22 13:31N 40°39' W 074°06'1 1.5
2017-Jun-22 13:00N 40°39' W 074°07'0 0.0
2017-Jun-22 12:30N 40°39' W 074°07'1 2.4
2017-Jun-22 12:00N 40°39' W 074°05'3 5.4
2017-Jun-22 11:30N 40°37' W 074°03'3 6.7
2017-Jun-22 11:00N 40°34' W 074°02'0 0.6
2017-Jun-22 10:30N 40°34' W 074°01'2 3.8
2017-Jun-22 10:01N 40°32' W 074°01'4 7.6
2017-Jun-22 09:30N 40°29' W 073°57'4 7.1
2017-Jun-22 09:00N 40°26' W 073°54'3 6.2
2017-Jun-22 08:31N 40°23' W 073°54'4 5.0
2017-Jun-22 07:39N 40°19' W 073°54'1 4.6
2017-Jun-22 07:29N 40°18' W 073°54'2 3.9
2017-Jun-22 07:00N 40°16' W 073°53'2 1.3
2017-Jun-22 05:29N 40°17' W 073°51'2 4.0
2017-Jun-22 05:00N 40°16' W 073°53'14 4.4
2017-Jun-22 01:55N 40°02' W 073°57'6 5.2
2017-Jun-22 00:47N 39°57' W 073°58'2 5.2
2017-Jun-22 00:29N 39°55' W 073°58'2 5.1
2017-Jun-21 23:59N 39°53' W 073°59'3 4.9
2017-Jun-21 23:25N 39°50' W 073°59'2 5.0
2017-Jun-21 22:59N 39°48' W 073°60'3 5.5
2017-Jun-21 22:29N 39°45' W 074°01'3 6.0
2017-Jun-21 22:00N 39°42' W 074°03'3 6.1
2017-Jun-21 21:30N 39°40' W 074°04'3 6.0
2017-Jun-21 21:00N 39°37' W 074°06'3 6.0
2017-Jun-21 20:30N 39°34' W 074°08'3 6.0
2017-Jun-21 19:58N 39°31' W 074°10'39 6.8
2017-Jun-21 14:18N 39°01' W 074°40'8 7.1
2017-Jun-21 13:09N 38°54' W 074°46'2 7.2
2017-Jun-21 12:55N 38°53' W 074°47'3 7.2
2017-Jun-21 12:27N 38°50' W 074°50'14 5.0
2017-Jun-21 09:35N 38°57' W 075°06'2 4.7
2017-Jun-21 09:13N 38°58' W 075°07'5 5.4
2017-Jun-21 08:20N 39°03' W 075°10'2 6.6
2017-Jun-21 08:00N 39°05' W 075°11'3 6.0
2017-Jun-21 07:30N 39°07' W 075°13'4 7.3
2017-Jun-21 07:00N 39°10' W 075°16'4 8.3
2017-Jun-21 06:30N 39°14' W 075°18'5 9.8
2017-Jun-21 06:00N 39°18' W 075°22'510.3
2017-Jun-21 05:30N 39°21' W 075°27'510.0
2017-Jun-21 05:00N 39°25' W 075°31'4 8.9
2017-Jun-21 04:30N 39°29' W 075°34'4 8.8
2017-Jun-21 04:00N 39°33' W 075°33'4 8.2
2017-Jun-21 03:30N 39°37' W 075°35'4 7.2
2017-Jun-21 03:01N 39°40' W 075°32'3 6.5
2017-Jun-21 02:30N 39°43' W 075°30'3 5.9
2017-Jun-21 02:00N 39°46' W 075°29'3 5.2
2017-Jun-21 01:30N 39°48' W 075°26'3 5.0
2017-Jun-21 01:00N 39°49' W 075°23'2 4.1
2017-Jun-21 00:30N 39°50' W 075°21'0 0.5
2017-Jun-21 00:00N 39°50' W 075°22'0 0.3
2017-Jun-20 23:30N 39°50' W 075°22'1 1.8
2017-Jun-20 23:00N 39°50' W 075°23'0 0.7
2017-Jun-20 22:30N 39°50' W 075°23'0 0.0
2017-Jun-20 22:00N 39°50' W 075°23'0 0.0
2017-Jun-20 21:30N 39°50' W 075°23'0 0.0
2017-Jun-20 21:00N 39°50' W 075°23'0 0.0
2017-Jun-20 20:30N 39°50' W 075°23'0 0.0
2017-Jun-20 20:00N 39°50' W 075°23'0 0.0
2017-Jun-20 19:30N 39°50' W 075°23'0 0.0
2017-Jun-20 19:00N 39°50' W 075°23'0 0.0
2017-Jun-20 18:30N 39°50' W 075°23'0 0.0
2017-Jun-20 18:00N 39°50' W 075°23'0 0.0
2017-Jun-20 17:31N 39°50' W 075°23'4 7.3
2017-Jun-20 17:00N 39°51' W 075°19'510.2
2017-Jun-20 16:31N 39°53' W 075°12'4 8.3
2017-Jun-20 16:01N 39°55' W 075°08'4 7.8
2017-Jun-20 15:31N 39°58' W 075°06'1 2.0
2017-Jun-20 15:01N 39°59' W 075°04'7 7.3
2017-Jun-20 14:00N 39°53' W 075°10'2 4.8
2017-Jun-20 13:30N 39°54' W 075°13'1 0.0
2017-Jun-19 18:33N 39°54' W 075°12'0 0.5
2017-Jun-19 18:30N 39°54' W 075°12'1 1.0
2017-Jun-19 18:00N 39°54' W 075°13'3 5.2
2017-Jun-19 17:30N 39°53' W 075°09'4 7.3
2017-Jun-19 17:00N 39°56' W 075°08'4 7.4
2017-Jun-19 16:30N 39°59' W 075°05'0 0.1
2017-Jun-19 16:00N 39°59' W 075°05'0 0.0
2017-Jun-19 15:30N 39°59' W 075°05'0 0.0
2017-Jun-19 15:00N 39°59' W 075°05'0 0.0
2017-Jun-19 14:30N 39°59' W 075°05'0 0.0
2017-Jun-19 13:30N 39°59' W 075°05'0 0.0
2017-Jun-19 13:00N 39°59' W 075°05'0 0.0
2017-Jun-19 12:30N 39°59' W 075°05'0 0.0
2017-Jun-19 12:01N 39°59' W 075°05'0 0.0
2017-Jun-19 11:30N 39°59' W 075°05'2 4.0
2017-Jun-19 11:00N 39°58' W 075°07'4 8.8
2017-Jun-19 10:30N 39°54' W 075°08'3 6.1
2017-Jun-19 10:00N 39°54' W 075°12'0 0.4
2017-Jun-19 09:30N 39°54' W 075°12'  
Track history (hours):
 
Tides and Currents Weather Stations Pressure Air Temp Water Temp Dewpoint Dewpoint Depression Visibility Wind Speed Wind Dir Waves Ship Positions

Taurus

Owner: Kirby Offshore Marine, LLC, Seattle, WA. More information available from US FCC via Universal Licensing System and Coast Guard Vessel Documentation Center.

Last reported at 2017-Jun-27 21:14 UTC. Time now 2017-Jun-27 22:36 UTC.
Position N 39°22' W 074°24'.

Length 24 m.

Type: Ship (hazmat cat B). MMSI: 366910990.

Date/timePositionNaut miles runAvg speedWind from/ knotsBaromVisibWave heightAir tempDewpointWater temp
2017-Jun-27 21:14N 39°22' W 074°24'40 5.3
2017-Jun-27 13:39N 39°06' W 075°12'1 8.7
2017-Jun-27 13:30N 39°07' W 075°13'5 9.1
2017-Jun-27 12:56N 39°11' W 075°17'410.4
2017-Jun-27 12:31N 39°15' W 075°20'611.9
2017-Jun-27 12:00N 39°20' W 075°25'612.5
2017-Jun-27 11:31N 39°24' W 075°30'611.3
2017-Jun-27 11:00N 39°29' W 075°34'611.3
2017-Jun-27 10:30N 39°35' W 075°33'5 9.9
2017-Jun-27 10:00N 39°40' W 075°32'510.7
2017-Jun-27 09:31N 39°45' W 075°30'5 9.5
2017-Jun-27 09:01N 39°48' W 075°25'2 4.3
2017-Jun-27 08:30N 39°49' W 075°23'0 0.5
2017-Jun-27 08:01N 39°50' W 075°23'1 1.5
2017-Jun-27 07:30N 39°50' W 075°22'0 0.9
2017-Jun-27 07:00N 39°49' W 075°22'0 0.7
2017-Jun-27 06:30N 39°50' W 075°22'2 4.9
2017-Jun-27 06:00N 39°48' W 075°25'2 4.5
2017-Jun-27 05:30N 39°47' W 075°27'5 9.0
2017-Jun-27 05:00N 39°43' W 075°30'4 9.0
2017-Jun-27 04:30N 39°39' W 075°33'4 7.8
2017-Jun-27 04:00N 39°35' W 075°34'4 8.5
2017-Jun-27 03:30N 39°31' W 075°33'4 8.5
2017-Jun-27 03:00N 39°27' W 075°33'4 8.4
2017-Jun-27 02:30N 39°24' W 075°29'4 7.8
2017-Jun-27 02:00N 39°21' W 075°26'4 7.3
2017-Jun-27 01:31N 39°18' W 075°23'4 7.1
2017-Jun-27 01:01N 39°16' W 075°20'3 6.2
2017-Jun-27 00:30N 39°13' W 075°17'2 4.1
2017-Jun-27 00:00N 39°11' W 075°16'3 6.5
2017-Jun-26 23:30N 39°09' W 075°14'3 5.0
2017-Jun-26 22:59N 39°06' W 075°12'2 3.5
2017-Jun-26 22:27N 39°05' W 075°11'1 0.1
2017-Jun-26 10:25N 39°04' W 075°11'511.1
2017-Jun-26 10:00N 39°08' W 075°14'612.0
2017-Jun-26 09:30N 39°13' W 075°18'612.9
2017-Jun-26 09:00N 39°18' W 075°23'612.2
2017-Jun-26 08:30N 39°23' W 075°28'611.5
2017-Jun-26 08:00N 39°27' W 075°33'510.5
2017-Jun-26 07:31N 39°32' W 075°33'2 4.3
2017-Jun-26 07:01N 39°34' W 075°31'2 3.6
2017-Jun-26 06:30N 39°35' W 075°29'0 0.4
2017-Jun-26 06:01N 39°34' W 075°29'3 5.8
2017-Jun-26 05:30N 39°33' W 075°32'4 7.1
2017-Jun-26 05:01N 39°35' W 075°36'3 6.7
2017-Jun-26 04:30N 39°39' W 075°35'3 6.9
2017-Jun-26 04:00N 39°41' W 075°31'3 6.9
2017-Jun-26 03:30N 39°44' W 075°30'4 7.5
2017-Jun-26 03:00N 39°47' W 075°27'4 8.3
2017-Jun-26 02:30N 39°50' W 075°23'5 9.3
2017-Jun-26 02:00N 39°51' W 075°17'5 9.3
2017-Jun-26 01:31N 39°54' W 075°12'0 0.2
2017-Jun-26 00:58N 39°54' W 075°12'0 0.0
2017-Jun-26 00:30N 39°54' W 075°12'0 0.0
2017-Jun-26 00:00N 39°54' W 075°12'0 0.0
2017-Jun-25 23:30N 39°54' W 075°12'0 0.0
2017-Jun-25 23:00N 39°54' W 075°12'1 1.1
2017-Jun-25 22:30N 39°54' W 075°12'3 5.3
2017-Jun-25 22:00N 39°53' W 075°09'4 7.3
2017-Jun-25 21:30N 39°56' W 075°08'3 6.9
2017-Jun-25 21:00N 39°59' W 075°05'0 0.5
2017-Jun-25 20:25N 39°59' W 075°05'0 0.0
2017-Jun-25 17:40N 39°59' W 075°05'0 0.0
2017-Jun-25 16:38N 39°59' W 075°05'0 0.0
2017-Jun-25 16:26N 39°59' W 075°05'3 4.5
2017-Jun-25 15:51N 39°58' W 075°08'3 8.2
2017-Jun-25 15:29N 39°55' W 075°08'3 6.4
2017-Jun-25 15:00N 39°53' W 075°11'2 3.1
2017-Jun-25 14:29N 39°54' W 075°13'1 0.0
2017-Jun-23 19:24N 39°54' W 075°12'3 6.4
2017-Jun-23 19:00N 39°53' W 075°08'4 8.6
2017-Jun-23 18:30N 39°57' W 075°08'3 5.3
2017-Jun-23 18:01N 39°55' W 075°08'4 8.0
2017-Jun-23 17:30N 39°53' W 075°12'5 9.5
2017-Jun-23 17:00N 39°51' W 075°18'4 8.0
2017-Jun-23 16:30N 39°50' W 075°23'0 0.1
2017-Jun-23 16:00N 39°50' W 075°23'0 0.0
2017-Jun-23 15:30N 39°50' W 075°23'0 0.0
2017-Jun-23 15:00N 39°50' W 075°23'0 0.0
2017-Jun-23 14:30N 39°50' W 075°23'0 0.0
2017-Jun-23 13:30N 39°50' W 075°23'4 8.5
2017-Jun-23 13:00N 39°47' W 075°27'5 9.9
2017-Jun-23 12:30N 39°43' W 075°31'5 9.5
2017-Jun-23 12:00N 39°39' W 075°34'4 8.2
2017-Jun-23 11:30N 39°35' W 075°33'4 8.5
2017-Jun-23 11:00N 39°30' W 075°33'4 8.5
2017-Jun-23 10:30N 39°26' W 075°32'4 8.4
2017-Jun-23 10:00N 39°23' W 075°28'4 8.1
2017-Jun-23 09:31N 39°20' W 075°25'4 7.3
2017-Jun-23 09:00N 39°17' W 075°22'4 7.4
2017-Jun-23 08:31N 39°14' W 075°19'3 6.8
2017-Jun-23 08:00N 39°11' W 075°17'4 7.4
2017-Jun-23 07:30N 39°08' W 075°14'4 7.8
2017-Jun-23 07:01N 39°05' W 075°11'4 7.5
2017-Jun-23 06:30N 39°02' W 075°09'4 7.5
2017-Jun-23 06:00N 38°58' W 075°07'3 6.6
2017-Jun-23 05:31N 38°55' W 075°06'4 6.6
2017-Jun-23 04:58N 38°52' W 075°04'3 6.4
2017-Jun-23 04:28N 38°49' W 075°02'5 7.5
2017-Jun-23 03:51N 38°49' W 074°56'3 7.7
2017-Jun-23 03:31N 38°50' W 074°52'16 8.5
2017-Jun-23 01:40N 39°02' W 074°40'7 9.0
2017-Jun-23 00:52N 39°07' W 074°34'3 8.9
2017-Jun-23 00:30N 39°10' W 074°31'5 9.1
2017-Jun-22 23:57N 39°13' W 074°27'22 8.9
2017-Jun-22 21:31N 39°32' W 074°13'0 9.2
2017-Jun-22 21:29N 39°32' W 074°13'6 9.2
2017-Jun-22 20:50N 39°38' W 074°09'3 9.0
2017-Jun-22 20:30N 39°40' W 074°07'4 9.1
2017-Jun-22 20:00N 39°44' W 074°05'5 8.4
2017-Jun-22 19:25N 39°49' W 074°04'4 8.8
2017-Jun-22 18:58N 39°53' W 074°03'4 9.0
2017-Jun-22 18:29N 39°57' W 074°02'5 9.2
2017-Jun-22 17:59N 40°02' W 074°01'28 8.8
2017-Jun-22 14:51N 40°29' W 073°56'411.1
2017-Jun-22 14:30N 40°31' W 074°01'8 8.4
2017-Jun-22 13:31N 40°39' W 074°06'1 1.5
2017-Jun-22 13:00N 40°39' W 074°07'0 0.0
2017-Jun-22 12:30N 40°39' W 074°07'1 2.4
2017-Jun-22 12:00N 40°39' W 074°05'3 5.4
2017-Jun-22 11:30N 40°37' W 074°03'3 6.7
2017-Jun-22 11:00N 40°34' W 074°02'0 0.6
2017-Jun-22 10:30N 40°34' W 074°01'2 3.8
2017-Jun-22 10:01N 40°32' W 074°01'4 7.6
2017-Jun-22 09:30N 40°29' W 073°57'4 7.1
2017-Jun-22 09:00N 40°26' W 073°54'3 6.2
2017-Jun-22 08:31N 40°23' W 073°54'4 5.0
2017-Jun-22 07:39N 40°19' W 073°54'1 4.6
2017-Jun-22 07:29N 40°18' W 073°54'2 3.9
2017-Jun-22 07:00N 40°16' W 073°53'2 1.3
2017-Jun-22 05:29N 40°17' W 073°51'2 4.0
2017-Jun-22 05:00N 40°16' W 073°53'14 4.4
2017-Jun-22 01:55N 40°02' W 073°57'6 5.2
2017-Jun-22 00:47N 39°57' W 073°58'2 5.2
2017-Jun-22 00:29N 39°55' W 073°58'2 5.1
2017-Jun-21 23:59N 39°53' W 073°59'3 4.9
2017-Jun-21 23:25N 39°50' W 073°59'2 5.0
2017-Jun-21 22:59N 39°48' W 073°60'3 5.5
2017-Jun-21 22:29N 39°45' W 074°01'3 6.0
2017-Jun-21 22:00N 39°42' W 074°03'3 6.1
2017-Jun-21 21:30N 39°40' W 074°04'3 6.0
2017-Jun-21 21:00N 39°37' W 074°06'3 6.0
2017-Jun-21 20:30N 39°34' W 074°08'3 6.0
2017-Jun-21 19:58N 39°31' W 074°10'39 6.8
2017-Jun-21 14:18N 39°01' W 074°40'8 7.1
2017-Jun-21 13:09N 38°54' W 074°46'2 7.2
2017-Jun-21 12:55N 38°53' W 074°47'3 7.2
2017-Jun-21 12:27N 38°50' W 074°50'14 5.0
2017-Jun-21 09:35N 38°57' W 075°06'2 4.7
2017-Jun-21 09:13N 38°58' W 075°07'5 5.4
2017-Jun-21 08:20N 39°03' W 075°10'2 6.6
2017-Jun-21 08:00N 39°05' W 075°11'3 6.0
2017-Jun-21 07:30N 39°07' W 075°13'4 7.3
2017-Jun-21 07:00N 39°10' W 075°16'4 8.3
2017-Jun-21 06:30N 39°14' W 075°18'5 9.8
2017-Jun-21 06:00N 39°18' W 075°22'510.3
2017-Jun-21 05:30N 39°21' W 075°27'510.0
2017-Jun-21 05:00N 39°25' W 075°31'4 8.9
2017-Jun-21 04:30N 39°29' W 075°34'4 8.8
2017-Jun-21 04:00N 39°33' W 075°33'4 8.2
2017-Jun-21 03:30N 39°37' W 075°35'4 7.2
2017-Jun-21 03:01N 39°40' W 075°32'3 6.5
2017-Jun-21 02:30N 39°43' W 075°30'3 5.9
2017-Jun-21 02:00N 39°46' W 075°29'3 5.2
2017-Jun-21 01:30N 39°48' W 075°26'3 5.0
2017-Jun-21 01:00N 39°49' W 075°23'2 4.1
2017-Jun-21 00:30N 39°50' W 075°21'0 0.5
2017-Jun-21 00:00N 39°50' W 075°22'0 0.3
2017-Jun-20 23:30N 39°50' W 075°22'1 1.8
2017-Jun-20 23:00N 39°50' W 075°23'0 0.7
2017-Jun-20 22:30N 39°50' W 075°23'0 0.0
2017-Jun-20 22:00N 39°50' W 075°23'0 0.0
2017-Jun-20 21:30N 39°50' W 075°23'0 0.0
2017-Jun-20 21:00N 39°50' W 075°23'0 0.0
2017-Jun-20 20:30N 39°50' W 075°23'0 0.0
2017-Jun-20 20:00N 39°50' W 075°23'0 0.0
2017-Jun-20 19:30N 39°50' W 075°23'0 0.0
2017-Jun-20 19:00N 39°50' W 075°23'0 0.0
2017-Jun-20 18:30N 39°50' W 075°23'0 0.0
2017-Jun-20 18:00N 39°50' W 075°23'0 0.0
2017-Jun-20 17:31N 39°50' W 075°23'4 7.3
2017-Jun-20 17:00N 39°51' W 075°19'510.2
2017-Jun-20 16:31N 39°53' W 075°12'4 8.3
2017-Jun-20 16:01N 39°55' W 075°08'4 7.8
2017-Jun-20 15:31N 39°58' W 075°06'1 2.0
2017-Jun-20 15:01N 39°59' W 075°04'7 7.3
2017-Jun-20 14:00N 39°53' W 075°10'2 4.8
2017-Jun-20 13:30N 39°54' W 075°13'1 0.0
2017-Jun-19 18:33N 39°54' W 075°12'0 0.5
2017-Jun-19 18:30N 39°54' W 075°12'1 1.0
2017-Jun-19 18:00N 39°54' W 075°13'3 5.2
2017-Jun-19 17:30N 39°53' W 075°09'4 7.3
2017-Jun-19 17:00N 39°56' W 075°08'4 7.4
2017-Jun-19 16:30N 39°59' W 075°05'0 0.1
2017-Jun-19 16:00N 39°59' W 075°05'0 0.0
2017-Jun-19 15:30N 39°59' W 075°05'0 0.0
2017-Jun-19 15:00N 39°59' W 075°05'0 0.0
2017-Jun-19 14:30N 39°59' W 075°05'0 0.0
2017-Jun-19 13:30N 39°59' W 075°05'0 0.0
2017-Jun-19 13:00N 39°59' W 075°05'0 0.0
2017-Jun-19 12:30N 39°59' W 075°05'0 0.0
2017-Jun-19 12:01N 39°59' W 075°05'0 0.0
2017-Jun-19 11:30N 39°59' W 075°05'2 4.0
2017-Jun-19 11:00N 39°58' W 075°07'4 8.8
2017-Jun-19 10:30N 39°54' W 075°08'3 6.1
2017-Jun-19 10:00N 39°54' W 075°12'0 0.4
2017-Jun-19 09:30N 39°54' W 075°12'  

Dump ship's entire track history